sensor_id;sensor_type;location;lat;lon;timestamp;P1;durP1;ratioP1;P2;durP2;ratioP2
85510;SDS011;75921;51.616;11.880;2024-02-14T00:01:11;8.32;;;5.10;;
85510;SDS011;75921;51.616;11.880;2024-02-14T00:03:36;6.63;;;3.83;;
85510;SDS011;75921;51.616;11.880;2024-02-14T00:06:03;5.13;;;4.22;;
85510;SDS011;75921;51.616;11.880;2024-02-14T00:08:29;5.78;;;3.88;;
85510;SDS011;75921;51.616;11.880;2024-02-14T00:10:54;8.15;;;4.43;;
85510;SDS011;75921;51.616;11.880;2024-02-14T00:13:20;8.83;;;4.30;;
85510;SDS011;75921;51.616;11.880;2024-02-14T00:15:45;8.50;;;5.13;;
85510;SDS011;75921;51.616;11.880;2024-02-14T00:18:11;5.90;;;3.95;;
85510;SDS011;75921;51.616;11.880;2024-02-14T00:20:36;6.45;;;4.20;;
85510;SDS011;75921;51.616;11.880;2024-02-14T00:23:02;7.15;;;4.28;;
85510;SDS011;75921;51.616;11.880;2024-02-14T00:25:27;7.13;;;4.00;;
85510;SDS011;75921;51.616;11.880;2024-02-14T00:27:52;7.07;;;4.47;;
85510;SDS011;75921;51.616;11.880;2024-02-14T00:30:19;7.18;;;4.50;;
85510;SDS011;75921;51.616;11.880;2024-02-14T00:32:44;11.33;;;5.20;;
85510;SDS011;75921;51.616;11.880;2024-02-14T00:35:09;9.50;;;4.63;;
85510;SDS011;75921;51.616;11.880;2024-02-14T00:37:34;6.43;;;4.00;;
85510;SDS011;75921;51.616;11.880;2024-02-14T00:40:00;8.07;;;4.40;;
85510;SDS011;75921;51.616;11.880;2024-02-14T00:42:25;6.05;;;4.28;;
85510;SDS011;75921;51.616;11.880;2024-02-14T00:44:50;6.13;;;4.70;;
85510;SDS011;75921;51.616;11.880;2024-02-14T00:47:16;8.07;;;4.55;;
85510;SDS011;75921;51.616;11.880;2024-02-14T00:49:41;7.53;;;4.60;;
85510;SDS011;75921;51.616;11.880;2024-02-14T00:52:07;6.83;;;4.37;;
85510;SDS011;75921;51.616;11.880;2024-02-14T00:54:32;8.13;;;4.50;;
85510;SDS011;75921;51.616;11.880;2024-02-14T00:56:57;7.30;;;4.40;;
85510;SDS011;75921;51.616;11.880;2024-02-14T00:59:22;9.13;;;3.93;;
85510;SDS011;75921;51.616;11.880;2024-02-14T01:01:49;4.47;;;2.92;;
85510;SDS011;75921;51.616;11.880;2024-02-14T01:04:15;7.77;;;4.33;;
85510;SDS011;75921;51.616;11.880;2024-02-14T01:06:40;9.13;;;4.97;;
85510;SDS011;75921;51.616;11.880;2024-02-14T01:09:05;11.33;;;4.60;;
85510;SDS011;75921;51.616;11.880;2024-02-14T01:11:30;8.67;;;4.33;;
85510;SDS011;75921;51.616;11.880;2024-02-14T01:13:55;6.43;;;3.63;;
85510;SDS011;75921;51.616;11.880;2024-02-14T01:16:21;11.03;;;4.17;;
85510;SDS011;75921;51.616;11.880;2024-02-14T01:18:46;9.47;;;4.20;;
85510;SDS011;75921;51.616;11.880;2024-02-14T01:21:11;5.40;;;4.13;;
85510;SDS011;75921;51.616;11.880;2024-02-14T01:23:37;4.80;;;3.53;;
85510;SDS011;75921;51.616;11.880;2024-02-14T01:26:02;8.57;;;3.90;;
85510;SDS011;75921;51.616;11.880;2024-02-14T01:28:28;8.85;;;4.93;;
85510;SDS011;75921;51.616;11.880;2024-02-14T01:30:54;3.63;;;2.57;;
85510;SDS011;75921;51.616;11.880;2024-02-14T01:33:19;6.90;;;3.93;;
85510;SDS011;75921;51.616;11.880;2024-02-14T01:35:44;9.77;;;4.70;;
85510;SDS011;75921;51.616;11.880;2024-02-14T01:38:09;4.90;;;2.73;;
85510;SDS011;75921;51.616;11.880;2024-02-14T01:40:37;7.80;;;3.92;;
85510;SDS011;75921;51.616;11.880;2024-02-14T01:43:02;8.00;;;3.70;;
85510;SDS011;75921;51.616;11.880;2024-02-14T01:45:28;4.97;;;3.20;;
85510;SDS011;75921;51.616;11.880;2024-02-14T01:47:53;6.22;;;3.72;;
85510;SDS011;75921;51.616;11.880;2024-02-14T01:50:20;6.70;;;3.95;;
85510;SDS011;75921;51.616;11.880;2024-02-14T01:52:53;6.70;;;3.50;;
85510;SDS011;75921;51.616;11.880;2024-02-14T01:55:19;5.68;;;3.92;;
85510;SDS011;75921;51.616;11.880;2024-02-14T01:57:45;8.65;;;4.30;;
85510;SDS011;75921;51.616;11.880;2024-02-14T02:00:11;6.23;;;4.37;;
85510;SDS011;75921;51.616;11.880;2024-02-14T02:02:42;4.93;;;3.97;;
85510;SDS011;75921;51.616;11.880;2024-02-14T02:05:08;5.43;;;3.45;;
85510;SDS011;75921;51.616;11.880;2024-02-14T02:07:33;7.07;;;3.85;;
85510;SDS011;75921;51.616;11.880;2024-02-14T02:10:05;7.40;;;3.92;;
85510;SDS011;75921;51.616;11.880;2024-02-14T02:12:31;5.43;;;4.07;;
85510;SDS011;75921;51.616;11.880;2024-02-14T02:14:57;6.90;;;4.22;;
85510;SDS011;75921;51.616;11.880;2024-02-14T02:17:23;7.63;;;3.63;;
85510;SDS011;75921;51.616;11.880;2024-02-14T02:19:49;5.60;;;3.67;;
85510;SDS011;75921;51.616;11.880;2024-02-14T02:22:14;4.90;;;3.33;;
85510;SDS011;75921;51.616;11.880;2024-02-14T02:24:39;6.13;;;3.87;;
85510;SDS011;75921;51.616;11.880;2024-02-14T02:27:05;7.30;;;3.95;;
85510;SDS011;75921;51.616;11.880;2024-02-14T02:29:30;7.43;;;4.27;;
85510;SDS011;75921;51.616;11.880;2024-02-14T02:31:57;5.70;;;3.97;;
85510;SDS011;75921;51.616;11.880;2024-02-14T02:34:22;5.87;;;3.60;;
85510;SDS011;75921;51.616;11.880;2024-02-14T02:36:47;5.27;;;3.73;;
85510;SDS011;75921;51.616;11.880;2024-02-14T02:39:15;7.65;;;4.13;;
85510;SDS011;75921;51.616;11.880;2024-02-14T02:41:40;6.60;;;3.75;;
85510;SDS011;75921;51.616;11.880;2024-02-14T02:44:06;4.83;;;2.90;;
85510;SDS011;75921;51.616;11.880;2024-02-14T02:46:31;3.70;;;3.03;;
85510;SDS011;75921;51.616;11.880;2024-02-14T02:48:57;2.80;;;2.00;;
85510;SDS011;75921;51.616;11.880;2024-02-14T02:51:23;4.82;;;3.25;;
85510;SDS011;75921;51.616;11.880;2024-02-14T02:53:48;5.23;;;3.03;;
85510;SDS011;75921;51.616;11.880;2024-02-14T02:56:14;5.00;;;3.40;;
85510;SDS011;75921;51.616;11.880;2024-02-14T02:58:39;4.88;;;3.20;;
85510;SDS011;75921;51.616;11.880;2024-02-14T03:01:08;5.00;;;3.15;;
85510;SDS011;75921;51.616;11.880;2024-02-14T03:03:34;7.25;;;3.53;;
85510;SDS011;75921;51.616;11.880;2024-02-14T03:06:01;9.38;;;3.97;;
85510;SDS011;75921;51.616;11.880;2024-02-14T03:08:28;4.70;;;3.00;;
85510;SDS011;75921;51.616;11.880;2024-02-14T03:10:55;5.78;;;3.85;;
85510;SDS011;75921;51.616;11.880;2024-02-14T03:13:21;3.70;;;2.42;;
85510;SDS011;75921;51.616;11.880;2024-02-14T03:15:46;8.45;;;2.65;;
85510;SDS011;75921;51.616;11.880;2024-02-14T03:18:13;8.73;;;3.08;;
85510;SDS011;75921;51.616;11.880;2024-02-14T03:20:38;5.13;;;2.60;;
85510;SDS011;75921;51.616;11.880;2024-02-14T03:23:03;2.63;;;2.17;;
85510;SDS011;75921;51.616;11.880;2024-02-14T03:25:29;4.10;;;2.80;;
85510;SDS011;75921;51.616;11.880;2024-02-14T03:27:55;4.53;;;2.42;;
85510;SDS011;75921;51.616;11.880;2024-02-14T03:30:22;4.05;;;2.33;;
85510;SDS011;75921;51.616;11.880;2024-02-14T03:32:47;2.97;;;2.00;;
85510;SDS011;75921;51.616;11.880;2024-02-14T03:35:13;4.80;;;2.67;;
85510;SDS011;75921;51.616;11.880;2024-02-14T03:37:38;4.00;;;2.38;;
85510;SDS011;75921;51.616;11.880;2024-02-14T03:40:05;3.28;;;2.45;;
85510;SDS011;75921;51.616;11.880;2024-02-14T03:42:31;2.53;;;2.30;;
85510;SDS011;75921;51.616;11.880;2024-02-14T03:44:57;5.22;;;2.85;;
85510;SDS011;75921;51.616;11.880;2024-02-14T03:47:27;3.40;;;2.25;;
85510;SDS011;75921;51.616;11.880;2024-02-14T03:49:54;2.53;;;2.20;;
85510;SDS011;75921;51.616;11.880;2024-02-14T03:52:19;4.28;;;2.88;;
85510;SDS011;75921;51.616;11.880;2024-02-14T03:54:45;3.15;;;2.13;;
85510;SDS011;75921;51.616;11.880;2024-02-14T03:57:11;3.87;;;2.47;;
85510;SDS011;75921;51.616;11.880;2024-02-14T03:59:37;2.75;;;2.30;;
85510;SDS011;75921;51.616;11.880;2024-02-14T04:02:05;3.95;;;2.50;;
85510;SDS011;75921;51.616;11.880;2024-02-14T04:04:35;6.78;;;3.15;;
85510;SDS011;75921;51.616;11.880;2024-02-14T04:07:02;4.88;;;2.72;;
85510;SDS011;75921;51.616;11.880;2024-02-14T04:09:27;3.78;;;2.30;;
85510;SDS011;75921;51.616;11.880;2024-02-14T04:11:53;3.23;;;2.43;;
85510;SDS011;75921;51.616;11.880;2024-02-14T04:14:18;4.27;;;2.90;;
85510;SDS011;75921;51.616;11.880;2024-02-14T04:16:43;3.50;;;2.80;;
85510;SDS011;75921;51.616;11.880;2024-02-14T04:19:08;2.60;;;1.90;;
85510;SDS011;75921;51.616;11.880;2024-02-14T04:21:35;3.53;;;2.40;;
85510;SDS011;75921;51.616;11.880;2024-02-14T04:24:01;3.70;;;2.65;;
85510;SDS011;75921;51.616;11.880;2024-02-14T04:26:26;2.80;;;2.07;;
85510;SDS011;75921;51.616;11.880;2024-02-14T04:28:52;3.88;;;2.45;;
85510;SDS011;75921;51.616;11.880;2024-02-14T04:31:17;3.10;;;2.00;;
85510;SDS011;75921;51.616;11.880;2024-02-14T04:33:42;2.57;;;2.23;;
85510;SDS011;75921;51.616;11.880;2024-02-14T04:36:08;2.95;;;2.20;;
85510;SDS011;75921;51.616;11.880;2024-02-14T04:38:33;6.60;;;1.97;;
85510;SDS011;75921;51.616;11.880;2024-02-14T04:40:58;3.13;;;2.03;;
85510;SDS011;75921;51.616;11.880;2024-02-14T04:43:25;6.88;;;2.47;;
85510;SDS011;75921;51.616;11.880;2024-02-14T04:45:51;5.93;;;2.70;;
85510;SDS011;75921;51.616;11.880;2024-02-14T04:48:17;1.83;;;1.58;;
85510;SDS011;75921;51.616;11.880;2024-02-14T04:50:42;3.75;;;2.88;;
85510;SDS011;75921;51.616;11.880;2024-02-14T04:53:08;13.95;;;6.60;;
85510;SDS011;75921;51.616;11.880;2024-02-14T04:55:33;6.88;;;4.25;;
85510;SDS011;75921;51.616;11.880;2024-02-14T04:57:59;9.15;;;4.50;;
85510;SDS011;75921;51.616;11.880;2024-02-14T05:00:24;5.82;;;3.67;;
85510;SDS011;75921;51.616;11.880;2024-02-14T05:02:49;3.00;;;2.23;;
85510;SDS011;75921;51.616;11.880;2024-02-14T05:05:16;2.83;;;2.53;;
85510;SDS011;75921;51.616;11.880;2024-02-14T05:07:41;2.00;;;1.58;;
85510;SDS011;75921;51.616;11.880;2024-02-14T05:10:07;4.40;;;2.60;;
85510;SDS011;75921;51.616;11.880;2024-02-14T05:12:33;3.10;;;2.17;;
85510;SDS011;75921;51.616;11.880;2024-02-14T05:14:58;6.03;;;2.17;;
85510;SDS011;75921;51.616;11.880;2024-02-14T05:17:23;3.65;;;2.10;;
85510;SDS011;75921;51.616;11.880;2024-02-14T05:19:49;2.17;;;1.97;;
85510;SDS011;75921;51.616;11.880;2024-02-14T05:22:14;3.30;;;2.10;;
85510;SDS011;75921;51.616;11.880;2024-02-14T05:24:39;2.83;;;2.53;;
85510;SDS011;75921;51.616;11.880;2024-02-14T05:27:04;1.57;;;1.47;;
85510;SDS011;75921;51.616;11.880;2024-02-14T05:29:30;2.47;;;1.85;;
85510;SDS011;75921;51.616;11.880;2024-02-14T05:31:55;1.67;;;1.40;;
85510;SDS011;75921;51.616;11.880;2024-02-14T05:34:21;3.03;;;1.77;;
85510;SDS011;75921;51.616;11.880;2024-02-14T05:36:46;3.08;;;2.28;;
85510;SDS011;75921;51.616;11.880;2024-02-14T05:39:11;4.10;;;2.23;;
85510;SDS011;75921;51.616;11.880;2024-02-14T05:41:37;3.05;;;2.10;;
85510;SDS011;75921;51.616;11.880;2024-02-14T05:44:02;3.15;;;1.52;;
85510;SDS011;75921;51.616;11.880;2024-02-14T05:46:28;3.37;;;1.80;;
85510;SDS011;75921;51.616;11.880;2024-02-14T05:48:53;3.57;;;2.37;;
85510;SDS011;75921;51.616;11.880;2024-02-14T05:51:18;3.53;;;2.05;;
85510;SDS011;75921;51.616;11.880;2024-02-14T05:53:44;3.20;;;2.40;;
85510;SDS011;75921;51.616;11.880;2024-02-14T05:56:09;2.63;;;2.10;;
85510;SDS011;75921;51.616;11.880;2024-02-14T05:58:34;3.10;;;1.67;;
85510;SDS011;75921;51.616;11.880;2024-02-14T06:01:00;3.72;;;2.15;;
85510;SDS011;75921;51.616;11.880;2024-02-14T06:03:26;2.95;;;2.15;;
85510;SDS011;75921;51.616;11.880;2024-02-14T06:05:51;2.93;;;1.90;;
85510;SDS011;75921;51.616;11.880;2024-02-14T06:08:16;4.63;;;2.37;;
85510;SDS011;75921;51.616;11.880;2024-02-14T06:10:41;2.50;;;2.00;;
85510;SDS011;75921;51.616;11.880;2024-02-14T06:13:07;4.87;;;2.00;;
85510;SDS011;75921;51.616;11.880;2024-02-14T06:15:32;3.30;;;1.93;;
85510;SDS011;75921;51.616;11.880;2024-02-14T06:17:57;3.77;;;1.90;;
85510;SDS011;75921;51.616;11.880;2024-02-14T06:20:23;2.33;;;1.80;;
85510;SDS011;75921;51.616;11.880;2024-02-14T06:22:48;1.27;;;1.17;;
85510;SDS011;75921;51.616;11.880;2024-02-14T06:25:14;1.98;;;1.50;;
85510;SDS011;75921;51.616;11.880;2024-02-14T06:27:40;4.18;;;2.05;;
85510;SDS011;75921;51.616;11.880;2024-02-14T06:30:05;3.50;;;1.97;;
85510;SDS011;75921;51.616;11.880;2024-02-14T06:32:32;2.70;;;2.30;;
85510;SDS011;75921;51.616;11.880;2024-02-14T06:34:57;3.03;;;1.85;;
85510;SDS011;75921;51.616;11.880;2024-02-14T06:37:23;3.08;;;1.80;;
85510;SDS011;75921;51.616;11.880;2024-02-14T06:39:48;1.87;;;1.53;;
85510;SDS011;75921;51.616;11.880;2024-02-14T06:42:13;2.77;;;2.17;;
85510;SDS011;75921;51.616;11.880;2024-02-14T06:44:40;4.32;;;2.42;;
85510;SDS011;75921;51.616;11.880;2024-02-14T06:47:05;2.15;;;1.60;;
85510;SDS011;75921;51.616;11.880;2024-02-14T06:49:30;3.83;;;1.70;;
85510;SDS011;75921;51.616;11.880;2024-02-14T06:51:56;6.50;;;2.50;;
85510;SDS011;75921;51.616;11.880;2024-02-14T06:54:21;3.45;;;2.05;;
85510;SDS011;75921;51.616;11.880;2024-02-14T06:56:47;4.13;;;2.33;;
85510;SDS011;75921;51.616;11.880;2024-02-14T06:59:13;2.35;;;2.03;;
85510;SDS011;75921;51.616;11.880;2024-02-14T07:01:38;5.23;;;2.93;;
85510;SDS011;75921;51.616;11.880;2024-02-14T07:04:03;4.43;;;2.10;;
85510;SDS011;75921;51.616;11.880;2024-02-14T07:06:29;4.15;;;2.13;;
85510;SDS011;75921;51.616;11.880;2024-02-14T07:08:55;3.58;;;2.08;;
85510;SDS011;75921;51.616;11.880;2024-02-14T07:11:20;4.03;;;1.90;;
85510;SDS011;75921;51.616;11.880;2024-02-14T07:13:45;7.70;;;2.75;;
85510;SDS011;75921;51.616;11.880;2024-02-14T07:16:11;4.90;;;2.75;;
85510;SDS011;75921;51.616;11.880;2024-02-14T07:18:36;6.72;;;2.10;;
85510;SDS011;75921;51.616;11.880;2024-02-14T07:21:02;5.40;;;2.17;;
85510;SDS011;75921;51.616;11.880;2024-02-14T07:23:27;5.73;;;2.77;;
85510;SDS011;75921;51.616;11.880;2024-02-14T07:25:53;5.68;;;2.20;;
85510;SDS011;75921;51.616;11.880;2024-02-14T07:28:18;4.97;;;2.90;;
85510;SDS011;75921;51.616;11.880;2024-02-14T07:30:44;3.97;;;2.67;;
85510;SDS011;75921;51.616;11.880;2024-02-14T07:33:09;4.65;;;2.83;;
85510;SDS011;75921;51.616;11.880;2024-02-14T07:35:36;3.30;;;2.28;;
85510;SDS011;75921;51.616;11.880;2024-02-14T07:38:01;2.78;;;2.03;;
85510;SDS011;75921;51.616;11.880;2024-02-14T07:40:27;3.83;;;1.88;;
85510;SDS011;75921;51.616;11.880;2024-02-14T07:42:55;5.18;;;2.50;;
85510;SDS011;75921;51.616;11.880;2024-02-14T07:45:21;2.70;;;1.93;;
85510;SDS011;75921;51.616;11.880;2024-02-14T07:47:46;5.03;;;2.60;;
85510;SDS011;75921;51.616;11.880;2024-02-14T07:50:11;3.73;;;2.17;;
85510;SDS011;75921;51.616;11.880;2024-02-14T07:52:36;3.97;;;2.28;;
85510;SDS011;75921;51.616;11.880;2024-02-14T07:55:06;6.07;;;2.63;;
85510;SDS011;75921;51.616;11.880;2024-02-14T07:57:32;5.82;;;3.17;;
85510;SDS011;75921;51.616;11.880;2024-02-14T07:59:57;4.70;;;2.20;;
85510;SDS011;75921;51.616;11.880;2024-02-14T08:02:22;3.90;;;2.73;;
85510;SDS011;75921;51.616;11.880;2024-02-14T08:04:47;4.13;;;2.73;;
85510;SDS011;75921;51.616;11.880;2024-02-14T08:07:13;5.57;;;2.87;;
85510;SDS011;75921;51.616;11.880;2024-02-14T08:09:38;5.00;;;2.10;;
85510;SDS011;75921;51.616;11.880;2024-02-14T08:12:04;4.28;;;2.83;;
85510;SDS011;75921;51.616;11.880;2024-02-14T08:14:30;10.32;;;2.83;;
85510;SDS011;75921;51.616;11.880;2024-02-14T08:16:56;4.60;;;2.58;;
85510;SDS011;75921;51.616;11.880;2024-02-14T08:19:21;3.00;;;2.37;;
85510;SDS011;75921;51.616;11.880;2024-02-14T08:21:46;5.30;;;2.20;;
85510;SDS011;75921;51.616;11.880;2024-02-14T08:24:12;3.03;;;2.13;;
85510;SDS011;75921;51.616;11.880;2024-02-14T08:26:37;3.37;;;2.20;;
85510;SDS011;75921;51.616;11.880;2024-02-14T08:29:02;4.43;;;2.70;;
85510;SDS011;75921;51.616;11.880;2024-02-14T08:31:29;7.00;;;2.85;;
85510;SDS011;75921;51.616;11.880;2024-02-14T08:33:54;5.87;;;2.60;;
85510;SDS011;75921;51.616;11.880;2024-02-14T08:36:20;4.28;;;2.78;;
85510;SDS011;75921;51.616;11.880;2024-02-14T08:38:45;4.03;;;2.10;;
85510;SDS011;75921;51.616;11.880;2024-02-14T08:41:10;5.07;;;3.03;;
85510;SDS011;75921;51.616;11.880;2024-02-14T08:43:37;4.03;;;2.00;;
85510;SDS011;75921;51.616;11.880;2024-02-14T08:46:02;3.73;;;3.07;;
85510;SDS011;75921;51.616;11.880;2024-02-14T08:48:28;4.47;;;2.95;;
85510;SDS011;75921;51.616;11.880;2024-02-14T08:50:54;3.72;;;2.85;;
85510;SDS011;75921;51.616;11.880;2024-02-14T08:53:20;6.27;;;3.43;;
85510;SDS011;75921;51.616;11.880;2024-02-14T08:55:46;5.57;;;3.25;;
85510;SDS011;75921;51.616;11.880;2024-02-14T08:58:11;4.50;;;2.50;;
85510;SDS011;75921;51.616;11.880;2024-02-14T09:00:36;7.87;;;2.83;;
85510;SDS011;75921;51.616;11.880;2024-02-14T09:03:05;4.63;;;2.53;;
85510;SDS011;75921;51.616;11.880;2024-02-14T09:05:30;6.55;;;3.10;;
85510;SDS011;75921;51.616;11.880;2024-02-14T09:07:56;6.53;;;3.47;;
85510;SDS011;75921;51.616;11.880;2024-02-14T09:10:21;8.60;;;2.93;;
85510;SDS011;75921;51.616;11.880;2024-02-14T09:12:47;4.63;;;3.15;;
85510;SDS011;75921;51.616;11.880;2024-02-14T09:15:12;5.35;;;3.45;;
85510;SDS011;75921;51.616;11.880;2024-02-14T09:17:38;5.32;;;3.25;;
85510;SDS011;75921;51.616;11.880;2024-02-14T09:20:05;9.88;;;3.80;;
85510;SDS011;75921;51.616;11.880;2024-02-14T09:22:34;7.72;;;4.03;;
85510;SDS011;75921;51.616;11.880;2024-02-14T09:25:00;7.45;;;3.88;;
85510;SDS011;75921;51.616;11.880;2024-02-14T09:27:29;6.35;;;4.28;;
85510;SDS011;75921;51.616;11.880;2024-02-14T09:29:54;6.85;;;3.78;;
85510;SDS011;75921;51.616;11.880;2024-02-14T09:32:19;4.20;;;2.93;;
85510;SDS011;75921;51.616;11.880;2024-02-14T09:34:45;6.57;;;3.97;;
85510;SDS011;75921;51.616;11.880;2024-02-14T09:37:11;5.10;;;4.00;;
85510;SDS011;75921;51.616;11.880;2024-02-14T09:39:36;5.18;;;3.63;;
85510;SDS011;75921;51.616;11.880;2024-02-14T09:42:01;5.27;;;3.63;;
85510;SDS011;75921;51.616;11.880;2024-02-14T09:44:33;8.07;;;3.50;;
85510;SDS011;75921;51.616;11.880;2024-02-14T09:47:00;5.88;;;4.30;;
85510;SDS011;75921;51.616;11.880;2024-02-14T09:49:26;8.82;;;4.53;;
85510;SDS011;75921;51.616;11.880;2024-02-14T09:51:53;8.52;;;5.03;;
85510;SDS011;75921;51.616;11.880;2024-02-14T09:54:21;8.65;;;4.50;;
85510;SDS011;75921;51.616;11.880;2024-02-14T09:56:50;5.43;;;3.00;;
85510;SDS011;75921;51.616;11.880;2024-02-14T09:59:18;8.60;;;4.70;;
85510;SDS011;75921;51.616;11.880;2024-02-14T10:01:44;7.57;;;3.97;;
85510;SDS011;75921;51.616;11.880;2024-02-14T10:04:10;9.75;;;4.65;;
85510;SDS011;75921;51.616;11.880;2024-02-14T10:06:36;3.63;;;2.85;;
85510;SDS011;75921;51.616;11.880;2024-02-14T10:09:02;6.57;;;4.35;;
85510;SDS011;75921;51.616;11.880;2024-02-14T10:11:27;5.32;;;3.53;;
85510;SDS011;75921;51.616;11.880;2024-02-14T10:13:52;5.50;;;3.97;;
85510;SDS011;75921;51.616;11.880;2024-02-14T10:16:19;6.57;;;3.78;;
85510;SDS011;75921;51.616;11.880;2024-02-14T10:18:45;11.00;;;4.85;;
85510;SDS011;75921;51.616;11.880;2024-02-14T10:21:14;7.88;;;4.40;;
85510;SDS011;75921;51.616;11.880;2024-02-14T10:23:42;6.28;;;4.35;;
85510;SDS011;75921;51.616;11.880;2024-02-14T10:26:08;5.60;;;4.10;;
85510;SDS011;75921;51.616;11.880;2024-02-14T10:28:33;9.00;;;3.58;;
85510;SDS011;75921;51.616;11.880;2024-02-14T10:30:59;8.00;;;5.03;;
85510;SDS011;75921;51.616;11.880;2024-02-14T10:33:27;9.47;;;3.50;;
85510;SDS011;75921;51.616;11.880;2024-02-14T10:35:54;8.25;;;4.20;;
85510;SDS011;75921;51.616;11.880;2024-02-14T10:38:21;6.28;;;4.38;;
85510;SDS011;75921;51.616;11.880;2024-02-14T10:40:47;5.55;;;3.75;;
85510;SDS011;75921;51.616;11.880;2024-02-14T10:43:14;8.98;;;4.10;;
85510;SDS011;75921;51.616;11.880;2024-02-14T10:45:39;6.47;;;4.20;;
85510;SDS011;75921;51.616;11.880;2024-02-14T10:48:05;6.60;;;4.13;;
85510;SDS011;75921;51.616;11.880;2024-02-14T10:50:34;9.40;;;4.38;;
85510;SDS011;75921;51.616;11.880;2024-02-14T10:53:03;5.65;;;3.38;;
85510;SDS011;75921;51.616;11.880;2024-02-14T10:55:30;8.85;;;4.53;;
85510;SDS011;75921;51.616;11.880;2024-02-14T10:57:57;5.28;;;3.60;;
85510;SDS011;75921;51.616;11.880;2024-02-14T11:00:23;6.18;;;3.88;;
85510;SDS011;75921;51.616;11.880;2024-02-14T11:02:49;10.73;;;4.72;;
85510;SDS011;75921;51.616;11.880;2024-02-14T11:05:16;6.68;;;3.33;;
85510;SDS011;75921;51.616;11.880;2024-02-14T11:07:47;6.10;;;3.50;;
85510;SDS011;75921;51.616;11.880;2024-02-14T11:10:14;6.03;;;3.90;;
85510;SDS011;75921;51.616;11.880;2024-02-14T11:12:41;6.60;;;4.22;;
85510;SDS011;75921;51.616;11.880;2024-02-14T11:15:16;6.82;;;3.97;;
85510;SDS011;75921;51.616;11.880;2024-02-14T11:17:43;5.70;;;3.15;;
85510;SDS011;75921;51.616;11.880;2024-02-14T11:22:49;6.47;;;3.30;;
85510;SDS011;75921;51.616;11.880;2024-02-14T11:25:17;7.10;;;3.58;;
85510;SDS011;75921;51.616;11.880;2024-02-14T11:27:46;4.82;;;3.17;;
85510;SDS011;75921;51.616;11.880;2024-02-14T11:30:12;7.20;;;3.88;;
85510;SDS011;75921;51.616;11.880;2024-02-14T11:32:37;6.38;;;3.55;;
85510;SDS011;75921;51.616;11.880;2024-02-14T11:35:07;6.40;;;2.95;;
85510;SDS011;75921;51.616;11.880;2024-02-14T11:37:36;7.32;;;4.40;;
85510;SDS011;75921;51.616;11.880;2024-02-14T11:40:01;9.00;;;3.63;;
85510;SDS011;75921;51.616;11.880;2024-02-14T11:42:27;5.53;;;3.42;;
85510;SDS011;75921;51.616;11.880;2024-02-14T11:44:52;6.53;;;3.85;;
85510;SDS011;75921;51.616;11.880;2024-02-14T11:47:19;7.28;;;3.70;;
85510;SDS011;75921;51.616;11.880;2024-02-14T11:49:44;5.50;;;3.43;;
85510;SDS011;75921;51.616;11.880;2024-02-14T11:52:14;6.82;;;3.60;;
85510;SDS011;75921;51.616;11.880;2024-02-14T11:54:39;5.85;;;3.40;;
85510;SDS011;75921;51.616;11.880;2024-02-14T11:57:04;5.70;;;3.80;;
85510;SDS011;75921;51.616;11.880;2024-02-14T11:59:31;5.10;;;3.33;;
85510;SDS011;75921;51.616;11.880;2024-02-14T12:01:57;5.00;;;3.53;;
85510;SDS011;75921;51.616;11.880;2024-02-14T12:04:23;7.53;;;3.05;;
85510;SDS011;75921;51.616;11.880;2024-02-14T12:06:49;4.30;;;3.33;;
85510;SDS011;75921;51.616;11.880;2024-02-14T12:09:15;3.80;;;3.10;;
85510;SDS011;75921;51.616;11.880;2024-02-14T12:11:41;4.50;;;3.40;;
85510;SDS011;75921;51.616;11.880;2024-02-14T12:14:08;7.22;;;3.13;;
85510;SDS011;75921;51.616;11.880;2024-02-14T12:16:37;5.72;;;3.22;;
85510;SDS011;75921;51.616;11.880;2024-02-14T12:19:05;5.53;;;3.00;;
85510;SDS011;75921;51.616;11.880;2024-02-14T12:21:38;4.70;;;3.13;;
85510;SDS011;75921;51.616;11.880;2024-02-14T12:26:32;5.03;;;3.50;;
85510;SDS011;75921;51.616;11.880;2024-02-14T12:28:57;3.60;;;2.53;;
85510;SDS011;75921;51.616;11.880;2024-02-14T12:31:23;6.05;;;3.05;;
85510;SDS011;75921;51.616;11.880;2024-02-14T12:33:49;5.15;;;3.38;;
85510;SDS011;75921;51.616;11.880;2024-02-14T12:36:14;5.55;;;2.78;;
85510;SDS011;75921;51.616;11.880;2024-02-14T12:38:40;4.53;;;3.03;;
85510;SDS011;75921;51.616;11.880;2024-02-14T12:41:05;5.07;;;2.90;;
85510;SDS011;75921;51.616;11.880;2024-02-14T12:43:31;4.93;;;2.93;;
85510;SDS011;75921;51.616;11.880;2024-02-14T12:45:56;7.13;;;3.40;;
85510;SDS011;75921;51.616;11.880;2024-02-14T12:48:22;4.97;;;2.90;;
85510;SDS011;75921;51.616;11.880;2024-02-14T12:50:50;3.83;;;2.85;;
85510;SDS011;75921;51.616;11.880;2024-02-14T12:53:17;4.85;;;3.10;;
85510;SDS011;75921;51.616;11.880;2024-02-14T12:55:42;4.00;;;2.60;;
85510;SDS011;75921;51.616;11.880;2024-02-14T12:58:07;5.28;;;3.03;;
85510;SDS011;75921;51.616;11.880;2024-02-14T13:00:34;5.10;;;2.80;;
85510;SDS011;75921;51.616;11.880;2024-02-14T13:03:00;4.72;;;2.97;;
85510;SDS011;75921;51.616;11.880;2024-02-14T13:05:26;4.75;;;3.30;;
85510;SDS011;75921;51.616;11.880;2024-02-14T13:07:52;6.53;;;3.40;;
85510;SDS011;75921;51.616;11.880;2024-02-14T13:10:17;6.75;;;3.42;;
85510;SDS011;75921;51.616;11.880;2024-02-14T13:12:43;5.53;;;3.60;;
85510;SDS011;75921;51.616;11.880;2024-02-14T13:15:10;4.35;;;3.00;;
85510;SDS011;75921;51.616;11.880;2024-02-14T13:17:36;5.07;;;3.20;;
85510;SDS011;75921;51.616;11.880;2024-02-14T13:20:01;4.30;;;3.00;;
85510;SDS011;75921;51.616;11.880;2024-02-14T13:22:27;3.67;;;2.92;;
85510;SDS011;75921;51.616;11.880;2024-02-14T13:24:52;7.07;;;3.08;;
85510;SDS011;75921;51.616;11.880;2024-02-14T13:27:17;4.33;;;2.10;;
85510;SDS011;75921;51.616;11.880;2024-02-14T13:29:44;4.07;;;2.88;;
85510;SDS011;75921;51.616;11.880;2024-02-14T13:32:10;4.93;;;3.10;;
85510;SDS011;75921;51.616;11.880;2024-02-14T13:34:35;5.32;;;2.75;;
85510;SDS011;75921;51.616;11.880;2024-02-14T13:37:01;6.40;;;3.80;;
85510;SDS011;75921;51.616;11.880;2024-02-14T13:39:27;5.30;;;3.17;;
85510;SDS011;75921;51.616;11.880;2024-02-14T13:41:52;4.67;;;2.87;;
85510;SDS011;75921;51.616;11.880;2024-02-14T13:44:19;7.15;;;3.00;;
85510;SDS011;75921;51.616;11.880;2024-02-14T13:46:45;6.88;;;3.47;;
85510;SDS011;75921;51.616;11.880;2024-02-14T13:49:10;6.65;;;3.13;;
85510;SDS011;75921;51.616;11.880;2024-02-14T13:51:36;5.07;;;3.03;;
85510;SDS011;75921;51.616;11.880;2024-02-14T13:54:02;5.68;;;3.15;;
85510;SDS011;75921;51.616;11.880;2024-02-14T13:56:28;6.03;;;2.97;;
85510;SDS011;75921;51.616;11.880;2024-02-14T13:58:53;4.23;;;2.90;;
85510;SDS011;75921;51.616;11.880;2024-02-14T14:01:19;4.73;;;3.67;;
85510;SDS011;75921;51.616;11.880;2024-02-14T14:03:44;6.15;;;3.17;;
85510;SDS011;75921;51.616;11.880;2024-02-14T14:06:10;4.70;;;3.30;;
85510;SDS011;75921;51.616;11.880;2024-02-14T14:08:35;3.87;;;3.20;;
85510;SDS011;75921;51.616;11.880;2024-02-14T14:11:01;4.53;;;3.28;;
85510;SDS011;75921;51.616;11.880;2024-02-14T14:13:27;6.82;;;3.67;;
85510;SDS011;75921;51.616;11.880;2024-02-14T14:15:55;5.30;;;3.13;;
85510;SDS011;75921;51.616;11.880;2024-02-14T14:18:21;4.70;;;3.50;;
85510;SDS011;75921;51.616;11.880;2024-02-14T14:20:46;6.60;;;3.37;;
85510;SDS011;75921;51.616;11.880;2024-02-14T14:23:11;5.83;;;3.60;;
85510;SDS011;75921;51.616;11.880;2024-02-14T14:25:37;6.43;;;3.15;;
85510;SDS011;75921;51.616;11.880;2024-02-14T14:28:03;5.47;;;3.90;;
85510;SDS011;75921;51.616;11.880;2024-02-14T14:30:28;7.18;;;3.45;;